Platinum Airport Platinum US
ICAO: PAPM
IATA:
Category: Medium
Scheduled Services:

Elevation: 15 ft
TransAlt. 18000 ft.

Airport Communications:
ANCHORAGE ARTCC:127.6
AWOS THREE:118.375
CTAF:122.8
KENAI RDO:122.5

PAPM Zoom In..

If you have problems with the map follow the link
https://www.worldairports.se/pages/airport.php?
ICAO=PAPM

Runways:

(A) RW 14 length 3300 ft width 75 ft
---- / hdg 139

(B) RW 32 length 3300 ft width 75 ft
---- / hdg 319

Location; PAPM
Day. 29 / Time. 17.40 Zulu
* Altimeter: 29.21
* Temperature: 1/° c. 33.8°f.
* Wind from: 340° Speed 38 kn with Gusts up to 44 kn.
Dewpoint: V4° c.
Visibility: 2 Statute Miles.
Clouds: Clear (automated report).
Conditions: Light Snow.

PAPM 291740Z AUTO 34038G44KT 2SM -SN CLR M27/M30 A2921 RMK AO2 PK WND 35044/1740 VIS 1 1/2V4 SNB02 P0000 FZRANO


Wind From 340°
Speed 38 kn.

 
 
jpsmedia worldairports.se 2020   terms of use